CSUN New Campus Station -PST Time - Most Recent Data on bottom of page




           Date/Time      Avg      Avg      Max     Wind      Avg      Max      Min      Avg      Avg    Total      Avg     Batt
                         Wind     Wind     Wind      Dir     Temp     Temp     Temp       RH      Bar     Rain    Solar     Volt
                      Spd MPH      Dir  Spd MPH   at Max    Deg_F    Deg_F    Deg_F        % Press_mb   Inches     W/m2      Min
--------------------------------------------------------------------------------------------------------------------------------
    05/26/2017 00:00      3.4      153      5.4      144     58.9     59.1     58.6       56     1012     0.00        0     13.3
    05/26/2017 00:15      2.6      153      7.7      137     59.0     59.1     58.8       56     1012     0.00        0     13.3
    05/26/2017 00:30      2.3      141      4.7      154     59.1     59.4     58.9       56     1012     0.00        0     13.3
    05/26/2017 00:45      3.5      148      6.9      166     59.1     59.4     58.9       56     1012     0.00        0     13.3
    05/26/2017 01:00      2.1      144      5.3      147     59.0     59.2     58.8       59     1012     0.00        0     13.3
    05/26/2017 01:15      1.8      151      5.1      146     58.9     59.2     58.8       63     1012     0.00        0     13.3
    05/26/2017 01:30      3.2      181      6.0      180     58.4     58.9     58.1       66     1012     0.00        0     13.3
    05/26/2017 01:45      3.6      200      8.8      172     57.6     58.2     57.2       71     1012     0.00        0     13.3
    05/26/2017 02:00      3.0      203      6.5      186     57.0     57.5     56.8       71     1012     0.00        0     13.3
    05/26/2017 02:15      4.7      185      8.6      177     56.9     57.2     56.6       73     1012     0.00        0     13.3
    05/26/2017 02:30      4.4      181      8.3      157     56.6     57.0     56.3       72     1012     0.00        0     13.3
    05/26/2017 02:45      1.2      192      4.1      169     56.6     56.9     56.3       69     1012     0.00        0     13.3
    05/26/2017 03:00      0.9      125      3.5       82     56.9     57.4     56.6       66     1012     0.00        0     13.3
    05/26/2017 03:15      2.3      151      4.1      160     57.5     57.7     57.2       66     1012     0.00        0     13.3
    05/26/2017 03:30      2.2      186      4.1      172     57.4     57.7     57.0       71     1012     0.00        0     13.3
    05/26/2017 03:45      1.3      218      3.3      213     57.1     57.3     56.8       73     1012     0.00        0     13.3
    05/26/2017 04:00      1.7      200      3.6      203     56.9     57.2     56.6       73     1012     0.00        0     13.3
    05/26/2017 04:15      0.9      237      3.0      259     56.8     57.0     56.6       73     1012     0.00        0     13.3
    05/26/2017 04:30      2.1      230      4.4      191     56.8     57.1     56.6       72     1012     0.00        0     13.3
    05/26/2017 04:45      1.4      274      3.3      244     56.9     57.1     56.6       71     1012     0.00        0     13.3
    05/26/2017 05:00      2.0      245      4.9      241     56.9     57.1     56.7       71     1012     0.00        4     13.3
    05/26/2017 05:15      1.7      226      4.3      200     57.0     57.2     56.8       72     1012     0.00       11     13.3
    05/26/2017 05:30      1.5      229      4.9      247     57.2     57.5     57.0       71     1013     0.00       21     13.3
    05/26/2017 05:45      2.0      204      3.8      184     57.3     57.6     57.1       71     1013     0.00       36     13.3
    05/26/2017 06:00      2.1      228      4.5      261     57.4     57.7     57.1       70     1013     0.00       48     13.3
    05/26/2017 06:15      1.8      233      4.6      266     57.7     58.0     57.4       69     1013     0.00       72     13.3
    05/26/2017 06:30      2.3      213      4.4      184     58.1     58.4     57.8       68     1013     0.00      107     13.3
    05/26/2017 06:45      1.6      205      5.5      159     58.6     59.1     58.1       66     1013     0.00      134     13.3
    05/26/2017 07:00      1.9      218      5.0      278     59.0     59.2     58.7       66     1013     0.00      131     13.2
    05/26/2017 07:15      2.3      184      5.0      205     59.2     59.5     58.7       65     1013     0.00      146     13.2
    05/26/2017 07:30      3.1      181      7.0      188     59.1     59.4     58.8       65     1013     0.00      160     13.2
    05/26/2017 07:45      2.3      185      5.5      156     59.8     60.2     59.3       63     1013     0.00      172     13.2
    05/26/2017 08:00      3.4      165      7.5      188     60.2     60.9     59.7       63     1014     0.00      170     13.2
    05/26/2017 08:15      3.7      167      7.1      158     60.6     61.0     60.1       61     1014     0.00      201     13.2
    05/26/2017 08:30      3.4      170      6.8      165     61.0     61.4     60.5       59     1014     0.00      233     13.2
    05/26/2017 08:45      3.4      168      7.5      179     61.5     62.7     60.8       55     1014     0.00      305     13.2
    05/26/2017 09:00      3.0      179      7.9      160     62.9     63.5     62.4       54     1014     0.00      345     13.1
    05/26/2017 09:15      3.2      169      6.8      146     63.0     63.4     62.6       54     1014     0.00      366     13.1
    05/26/2017 09:30      4.3      210      8.6      187     63.1     63.6     62.5       53     1014     0.00      461     13.1
    05/26/2017 09:45      2.7      198      6.8      187     63.4     64.0     62.8       52     1014     0.00      390     13.1
    05/26/2017 10:00      3.3      196      8.0      202     63.2     63.8     62.6       52     1014     0.00      274     13.1
    05/26/2017 10:15      2.7      221      6.3      240     63.7     64.1     63.2       53     1014     0.00      240     13.1
    05/26/2017 10:30      2.7      226      5.9      194     63.5     64.1     63.1       52     1014     0.00      204     13.1
    05/26/2017 10:45      2.3      195      6.8      152     63.9     64.2     63.4       50     1014     0.00      251     13.1
    05/26/2017 11:00      3.4      198      7.2      185     64.0     64.6     63.6       51     1014     0.00      201     13.1
    05/26/2017 11:15      4.2      168      8.2      169     64.4     64.9     63.8       50     1014     0.00      243     13.1
    05/26/2017 11:30      2.2      151      6.8      145     64.5     65.0     64.1       50     1014     0.00      259     13.1
    05/26/2017 11:45      3.9      172      7.4      163     64.5     65.0     64.1       50     1014     0.00      235     13.1
    05/26/2017 12:00      3.3      184      6.9      152     65.0     65.7     64.4       49     1014     0.00      245     13.1
    05/26/2017 12:15      3.1      205      7.3      193     65.4     66.1     65.0       47     1014     0.00      340     13.1
    05/26/2017 12:30      4.3      162      8.5      158     66.2     66.7     65.5       47     1014     0.00      300     13.1
    05/26/2017 12:45      3.3      153      7.2      173     66.7     67.0     66.3       45     1014     0.00      322     13.1
    05/26/2017 13:00      2.7       99      5.9       71     66.7     67.1     66.4       46     1014     0.00      375     13.1
    05/26/2017 13:15      3.8       97      8.6      141     66.4     67.0     66.1       46     1014     0.00      347     13.1
    05/26/2017 13:30      4.5      123      8.4      143     66.9     67.3     66.5       45     1014     0.00      350     13.1
    05/26/2017 13:45      4.5      161      9.7      196     67.8     68.5     67.2       45     1014     0.00      372     13.1
    05/26/2017 14:00      4.0      138     10.3      162     68.2     68.6     67.6       43     1014     0.00      393     13.1
    05/26/2017 14:15      4.8      157     10.6      176     68.3     69.1     67.8       43     1014     0.00      365     13.0
    05/26/2017 14:30      4.2      132      9.7      164     69.0     69.3     68.7       42     1013     0.00      525     13.0
    05/26/2017 14:45      5.6      186     10.8      155     68.8     69.5     68.2       41     1013     0.00      572     13.0
    05/26/2017 15:00      3.5      208      8.4      176     68.8     69.4     68.2       42     1013     0.00      515     13.0
    05/26/2017 15:15      2.6      184      7.8      261     69.1     69.7     68.5       43     1013     0.00      369     13.0
    05/26/2017 15:30      4.7      138     10.6      137     68.8     69.4     68.2       42     1013     0.00      344     13.0
    05/26/2017 15:45      3.4      114      8.2      109     68.7     69.3     68.3       44     1013     0.00      239     13.0
    05/26/2017 16:00      4.3      158     10.4      150     68.4     68.8     67.8       44     1013     0.00      215     13.0
    05/26/2017 16:15      6.7      180     11.3      185     67.9     68.7     67.2       47     1013     0.00      231     13.1
    05/26/2017 16:30      4.0      218      8.1      264     67.9     68.4     67.0       46     1013     0.00      277     13.1
    05/26/2017 16:45      3.7      200      7.9      209     67.6     68.1     66.9       46     1013     0.00      147     13.1
    05/26/2017 17:00      4.2      275     11.3      237     66.4     67.5     65.5       52     1013     0.00      103     13.1
    05/26/2017 17:15      4.9      269     12.1      238     65.2     65.6     65.0       53     1013     0.00       85     13.1
    05/26/2017 17:30      4.3      285      8.0      262     64.8     65.2     64.3       53     1013     0.00       76     13.1
    05/26/2017 17:45      5.1      266     12.3      244     64.3     64.8     63.9       53     1013     0.00       54     13.1
    05/26/2017 18:00      4.4      277     11.0      260     63.9     64.1     63.7       54     1014     0.00       48     13.1
    05/26/2017 18:15      4.4      275      9.2      281     63.6     64.0     63.3       55     1014     0.00       44     13.2
    05/26/2017 18:30      4.8      269     10.7      257     63.1     63.5     62.5       56     1014     0.00       29     13.2
    05/26/2017 18:45      3.8      269      8.6      234     62.6     62.9     62.3       56     1014     0.00       14     13.2
    05/26/2017 19:00      4.0      271      9.1      249     62.1     62.5     61.7       56     1014     0.00        4     13.2
    05/26/2017 19:15      3.8      283      6.7      247     61.4     61.8     61.0       57     1014     0.00        1     13.2
    05/26/2017 19:30      3.0      280      6.3      296     60.7     61.1     60.3       59     1014     0.00        0     13.2
    05/26/2017 19:45      3.3      283      6.4      301     60.1     60.5     59.8       60     1014     0.00        0     13.2
    05/26/2017 20:00      3.3      276      6.5      292     59.6     59.9     59.3       61     1014     0.00        0     13.2
    05/26/2017 20:15      3.2      266      7.7      246     59.3     59.6     58.9       63     1014     0.00        0     13.3
    05/26/2017 20:30      3.7      257      7.5      249     59.0     59.2     58.6       63     1014     0.00        0     13.3
    05/26/2017 20:45      2.8      262      5.7      258     58.6     58.8     58.5       63     1015     0.00        0     13.3
    05/26/2017 21:00      3.0      257      5.4      244     58.4     58.7     58.1       65     1015     0.00        0     13.3
    05/26/2017 21:15      4.4      251      7.3      252     58.2     58.5     57.9       67     1015     0.00        0     13.3
    05/26/2017 21:30      4.4      256      7.7      251     57.8     58.1     57.6       69     1015     0.00        0     13.3
    05/26/2017 21:45      3.9      255      6.9      247     57.5     57.8     57.2       70     1015     0.00        0     13.3
    05/26/2017 22:00      3.2      258      7.0      247     57.2     57.6     56.8       72     1015     0.00        0     13.3
    05/26/2017 22:15      2.9      254      5.5      247     56.8     57.1     56.5       74     1015     0.00        0     13.3
    05/26/2017 22:30      2.2      268      5.0      248     56.5     56.8     56.2       74     1015     0.00        0     13.3
    05/26/2017 22:45      1.5      283      3.1      248     56.3     56.5     56.0       74     1015     0.00        0     13.3
    05/26/2017 23:00      1.2      284      2.7      277     55.9     56.2     55.5       75     1015     0.00        0     13.3
    05/26/2017 23:15      0.7      246      2.6      247     55.3     55.7     54.8       76     1015     0.00        0     13.3
    05/26/2017 23:30      0.5      302      2.0      299     54.9     55.1     54.6       76     1015     0.00        0     13.3
    05/26/2017 23:45      0.3      292      1.1      291     54.6     54.9     54.3       77     1015     0.00        0     13.3
    05/27/2017 00:00      0.0      179      1.1      170     54.2     54.6     53.9       78     1015     0.00        0     13.3
    05/27/2017 00:15      0.0      175      0.7      175     53.7     54.1     53.5       78     1015     0.00        0     13.4
    05/27/2017 00:30      0.3      157      1.1      158     53.4     53.6     53.1       79     1015     0.00        0     13.4
    05/27/2017 00:45      0.3      182      1.3      161     53.0     53.4     52.6       80     1015     0.00        0     13.4
    05/27/2017 01:00      0.0      206      1.1      202     52.6     52.9     52.3       82     1015     0.00        0     13.4
    05/27/2017 01:15      0.3      276      1.4      289     52.7     53.0     52.4       82     1015     0.00        0     13.4
    05/27/2017 01:30      1.2      296      2.3      287     52.9     53.1     52.7       81     1015     0.00        0     13.4
    05/27/2017 01:45      0.8      285      1.8      283     52.6     52.9     52.3       82     1015     0.00        0     13.4
    05/27/2017 02:00      0.2      323      0.9      334     52.2     52.6     51.8       83     1015     0.00        0     13.4
    05/27/2017 02:15      0.0        0      0.0      330     51.7     52.1     51.3       83     1015     0.00        0     13.4
    05/27/2017 02:30      0.0        0      0.0      328     51.6     51.8     51.5       83     1015     0.00        0     13.4
    05/27/2017 02:45      0.1        5      1.1       31     51.7     51.9     51.5       83     1015     0.00        0     13.4
    05/27/2017 03:00      0.6       25      1.4       19     51.8     52.0     51.6       83     1015     0.00        0     13.4
    05/27/2017 03:15      1.4       10      3.3      349     52.2     52.8     51.7       80     1015     0.00        0     13.4
    05/27/2017 03:30      1.0       42      3.4      350     52.9     53.2     52.5       78     1015     0.00        0     13.4
    05/27/2017 03:45      0.9       38      2.0       55     53.1     53.3     52.9       77     1015     0.00        0     13.4
    05/27/2017 04:00      1.2       24      2.9       29     52.8     53.0     52.6       77     1015     0.00        0     13.4
    05/27/2017 04:15      0.4       29      1.8      346     52.7     52.9     52.5       77     1015     0.00        0     13.4
    05/27/2017 04:30      0.0        0      0.0       44     52.2     52.8     51.8       79     1015     0.00        0     13.4
    05/27/2017 04:45      0.1      297      0.7      297     51.8     52.0     51.6       80     1015     0.00        1     13.4
    05/27/2017 05:00      0.5      297      1.8      287     51.9     52.1     51.6       80     1015     0.00        5     13.4
    05/27/2017 05:15      0.5      291      2.1      292     52.1     52.4     52.0       81     1015     0.00       16     13.4
    05/27/2017 05:30      0.9      290      2.7      312     52.3     52.4     52.1       80     1015     0.00       20     13.4
    05/27/2017 05:45      0.4      301      2.0      291     52.6     53.0     52.2       79     1015     0.00       31     13.4
    05/27/2017 06:00      0.4      250      1.8      178     53.8     55.4     52.8       75     1015     0.00      126     13.4
    05/27/2017 06:15      0.2      193      1.6      188     56.2     57.3     55.2       68     1016     0.00      178     13.3
    05/27/2017 06:30      0.7       63      2.8       63     58.6     59.5     57.2       62     1016     0.00      228     13.3
    05/27/2017 06:45      0.7       25      2.1       62     59.7     60.6     59.2       61     1016     0.00      273     13.3
    05/27/2017 07:00      0.8       93      2.1      137     61.1     61.6     60.4       60     1016     0.00      322     13.2
    05/27/2017 07:15      1.5      204      3.5      155     60.7     61.2     60.2       61     1016     0.00      374     13.2
    05/27/2017 07:30      1.0      129      3.2      167     61.6     62.7     60.3       56     1016     0.00      412     13.2
    05/27/2017 07:45      1.9       67      3.6       87     61.9     62.6     61.3       57     1016     0.00      474     13.1
    05/27/2017 08:00      2.7      167      5.3      175     63.0     64.0     62.2       53     1016     0.00      533     13.1
    05/27/2017 08:15      2.1      215      5.2      173     64.2     64.7     63.5       51     1016     0.00      563     13.1
    05/27/2017 08:30      2.4      208      5.3      204     63.6     64.7     62.7       54     1016     0.00      202     13.1
    05/27/2017 08:45      2.2       96      5.1      153     63.3     65.2     62.7       52     1016     0.00      551     13.1
    05/27/2017 09:00      2.8      137      6.9      128     66.1     67.0     64.9       50     1016     0.00      487     13.1
    05/27/2017 09:15      2.2      178      4.8      165     65.7     66.7     64.7       49     1016     0.00      706     13.1
    05/27/2017 09:30      4.2      146      8.9      143     66.9     67.8     65.9       48     1016     0.00      826     13.1
    05/27/2017 09:45      3.2      136      7.1      141     67.7     68.5     67.0       46     1016     0.00      829     13.0
    05/27/2017 10:00      2.4       73      5.4       62     67.6     68.6     67.2       44     1016     0.00      835     13.0
    05/27/2017 10:15      2.4       23      5.6       77     68.9     70.0     68.2       43     1016     0.00      843     13.0
    05/27/2017 10:30      3.4       59      6.5      148     69.3     69.8     68.9       43     1016     0.00      863     13.0
    05/27/2017 10:45      3.2      118      6.8      133     69.3     70.2     68.7       43     1016     0.00      873     13.0
    05/27/2017 11:00      5.0      162      9.6      161     70.4     71.7     69.0       45     1016     0.00      875     13.0
    05/27/2017 11:15      3.9      147      9.3      175     70.7     71.2     70.0       45     1016     0.00      886     13.0
    05/27/2017 11:30      3.0      178     11.9      129     71.2     71.7     70.4       42     1016     0.00      895     13.0
    05/27/2017 11:45      5.0      186      9.7      143     71.0     72.0     69.9       43     1016     0.00      894     13.0
    05/27/2017 12:00      3.7      130      9.8      144     71.7     72.6     70.7       40     1016     0.00      896     13.0
    05/27/2017 12:15      3.6      161     12.1      157     72.1     72.8     71.4       40     1016     0.00      897     13.0
    05/27/2017 12:30      3.8       79      9.6       67     73.0     73.5     72.3       39     1016     0.00      893     13.0
    05/27/2017 12:45      3.3      126     10.5      143     73.6     74.4     73.1       38     1015     0.00      890     13.0
    05/27/2017 13:00      4.6      153     10.9      162     73.9     74.7     73.2       39     1015     0.00      879     13.0
    05/27/2017 13:15      5.3      149     14.6      159     75.1     75.9     74.1       35     1015     0.00      867     13.0
    05/27/2017 13:30      4.9      128     10.2      121     74.5     75.4     73.4       37     1015     0.00      848     12.9
    05/27/2017 13:45      4.2      129      9.0      158     73.9     74.7     73.4       38     1015     0.00      825     12.9
    05/27/2017 14:00      5.3      134      9.5      138     74.2     74.8     73.5       37     1015     0.00      801     12.9
    05/27/2017 14:15      4.5      153     11.4      172     75.0     75.7     74.0       38     1015     0.00      775     12.9
    05/27/2017 14:30      4.0      151     11.2      142     74.7     75.5     74.1       35     1015     0.00      744     12.9
    05/27/2017 14:45      4.5      124      8.8      146     75.1     75.9     74.3       36     1015     0.00      686     12.9
    05/27/2017 15:00      5.2      131      9.1       92     75.0     75.9     74.3       36     1015     0.00      674     12.9
    05/27/2017 15:15      5.8      115     11.2      147     74.3     74.8     73.8       37     1015     0.00      635     12.9
    05/27/2017 15:30      4.4      119     12.3       74     74.8     75.1     74.2       37     1015     0.00      592     12.9
    05/27/2017 15:45      4.3      114     10.0       62     74.3     75.3     73.8       39     1015     0.00      551     12.9
    05/27/2017 16:00      4.6      117     10.0      111     74.2     74.7     73.5       39     1015     0.00      504     12.9
    05/27/2017 16:15      4.0      124      8.9      166     74.1     74.7     73.6       38     1015     0.00      460     12.9
    05/27/2017 16:30      3.8      137      8.2      134     74.0     74.5     73.3       38     1015     0.00      412     12.9
    05/27/2017 16:45      4.6      171      8.2      162     72.6     73.9     72.1       42     1015     0.00      364     12.9
    05/27/2017 17:00      4.0      168      8.9      161     72.6     73.2     72.1       41     1015     0.00      316     12.9
    05/27/2017 17:15      3.1      195      7.7      257     72.5     73.2     71.9       42     1015     0.00      266     13.0
    05/27/2017 17:30      3.5      224      6.8      169     71.7     72.5     71.0       43     1015     0.00      178     13.0
    05/27/2017 17:45      3.1      233      6.4      234     70.5     71.1     69.9       44     1015     0.00       35     13.0
    05/27/2017 18:00      4.2      270     12.0      242     69.5     70.1     68.7       46     1015     0.00       31     13.0
    05/27/2017 18:15      5.3      285      9.7      298     68.0     68.9     67.2       49     1015     0.00       26     13.1
    05/27/2017 18:30      4.8      284      9.3      286     66.6     67.2     65.8       51     1015     0.00       21     13.1
    05/27/2017 18:45      4.9      282      8.7      248     65.3     66.0     64.6       53     1015     0.00       14     13.1
    05/27/2017 19:00      5.2      273     12.4      253     64.1     64.7     63.5       55     1015     0.00        6     13.2
    05/27/2017 19:15      4.6      275      9.6      286     63.3     63.8     62.9       56     1015     0.00        1     13.2
    05/27/2017 19:30      5.3      262     10.7      243     62.6     63.1     62.2       58     1015     0.00        0     13.2
    05/27/2017 19:45      5.1      263      9.9      244     62.1     62.4     61.8       59     1015     0.00        0     13.2
    05/27/2017 20:00      4.4      257      9.7      251     61.8     62.1     61.6       59     1015     0.00        0     13.2
    05/27/2017 20:15      3.6      255      7.8      239     61.8     62.0     61.5       59     1015     0.00        0     13.2
    05/27/2017 20:30      2.9      246      7.8      253     61.7     61.9     61.5       59     1015     0.00        0     13.2
    05/27/2017 20:45      1.7      221      4.2      256     61.3     61.8     60.8       60     1015     0.00        0     13.2
    05/27/2017 21:00      2.0      216      4.2      218     60.6     61.0     60.3       61     1015     0.00        0     13.2
    05/27/2017 21:15      1.8      218      5.3      204     60.0     60.5     59.5       62     1016     0.00        0     13.2
    05/27/2017 21:30      1.7      221      3.8      194     59.5     59.8     59.1       63     1016     0.00        0     13.3
    05/27/2017 21:45      1.3      218      2.8      216     59.0     59.4     58.6       64     1016     0.00        0     13.3
    05/27/2017 22:00      1.3      246      3.5      213     58.7     58.9     58.5       65     1016     0.00        0     13.3
    05/27/2017 22:15      0.4      201      2.1      260     58.6     58.9     58.4       67     1016     0.00        0     13.3
    05/27/2017 22:30      1.5      174      2.3      186     58.2     58.6     57.8       66     1016     0.00        0     13.3
    05/27/2017 22:45      2.6      183      4.2      173     57.8     58.0     57.6       66     1016     0.00        0     13.3
    05/27/2017 23:00      1.0      224      1.8      198     57.6     57.9     57.3       66     1015     0.00        0     13.3
    05/27/2017 23:15      0.7      231      2.3      265     57.2     57.5     56.9       67     1015     0.00        0     13.3
    05/27/2017 23:30      0.2      213      1.5      224     56.9     57.1     56.7       69     1015     0.00        0     13.3
    05/27/2017 23:45      0.0        0      0.0      230     57.0     57.1     56.8       68     1015     0.00        0     13.3
    05/28/2017 00:00      0.0        0      0.0      241     56.8     57.1     56.5       68     1015     0.00        0     13.3
    05/28/2017 00:15      0.0        0      0.0      235     56.4     56.7     56.0       69     1015     0.00        0     13.3
    05/28/2017 00:30      0.0      228      1.0      228     56.0     56.3     55.8       70     1015     0.00        0     13.3
    05/28/2017 00:45      0.7      304      1.4      321     56.4     56.8     55.9       69     1015     0.00        0     13.3
    05/28/2017 01:00      0.0      312      0.6      312     56.4     56.8     55.8       70     1015     0.00        0     13.3
    05/28/2017 01:15      0.0        0      0.0      314     55.6     56.0     55.1       72     1015     0.00        0     13.3
    05/28/2017 01:30      0.0        0      0.0      312     55.3     55.6     55.1       72     1015     0.00        0     13.3
    05/28/2017 01:45      0.0      306      0.7      306     55.3     55.5     55.1       73     1015     0.00        0     13.3
    05/28/2017 02:00      0.0        0      0.0      305     55.2     55.5     55.0       73     1015     0.00        0     13.3
    05/28/2017 02:15      0.0        0      0.0       39     54.9     55.2     54.6       74     1014     0.00        0     13.4
    05/28/2017 02:30      0.3       10      1.1       51     54.8     55.1     54.5       74     1014     0.00        0     13.4
    05/28/2017 02:45      0.7      343      1.5        7     55.1     55.3     54.9       74     1014     0.00        0     13.4
    05/28/2017 03:00      0.7        3      2.3       21     55.2     55.5     55.0       74     1014     0.00        0     13.4
    05/28/2017 03:15      0.4       29      1.7       42     54.9     55.3     54.6       75     1014     0.00        0     13.4
    05/28/2017 03:30      1.1       68      2.7       50     55.0     55.4     54.6       74     1014     0.00        0     13.4
    05/28/2017 03:45      0.1      136      1.1      167     54.7     55.3     54.1       76     1014     0.00        0     13.4
    05/28/2017 04:00      0.2      159      1.1      167     54.0     54.3     53.8       78     1014     0.00        0     13.4
    05/28/2017 04:15      0.7       37      1.7       34     54.1     54.3     53.7       77     1014     0.00        0     13.4
    05/28/2017 04:30      0.0        0      0.0       40     53.8     54.1     53.4       79     1014     0.00        0     13.4
    05/28/2017 04:45      0.0        0      0.0       39     53.4     53.6     53.1       79     1014     0.00        2     13.4
    05/28/2017 05:00      0.3      253      1.4      252     53.1     53.5     53.0       80     1014     0.00        6     13.4
    05/28/2017 05:15      0.0        0      0.0      257     53.3     53.6     53.0       80     1015     0.00       15     13.4
    05/28/2017 05:30      0.3       35      1.7       40     53.6     54.0     53.4       80     1015     0.00       24     13.4
    05/28/2017 05:45      1.3       44      2.6       49     54.5     55.5     53.8       75     1015     0.00       32     13.4
    05/28/2017 06:00      1.2       41      3.2       65     57.0     58.6     55.5       67     1015     0.00      134     13.3
    05/28/2017 06:15      1.7       50      3.5       86     58.9     59.7     58.5       65     1015     0.00      177     13.3
    05/28/2017 06:30      1.4       53      4.0       98     60.2     60.9     59.6       62     1015     0.00      223     13.3
    05/28/2017 06:45      1.7       72      3.3       82     61.4     61.9     60.7       60     1015     0.00      270     13.2
    05/28/2017 07:00      1.8       95      4.0       90     62.6     63.5     61.7       56     1015     0.00      319     13.2
    05/28/2017 07:15      1.9       88      4.0       81     63.2     63.6     62.8       57     1015     0.00      368     13.2
    05/28/2017 07:30      2.0      102      4.5      154     63.6     64.8     62.7       55     1015     0.00      404     13.2
    05/28/2017 07:45      2.5      149      5.0      169     64.9     65.4     64.5       55     1015     0.00      463     13.1
    05/28/2017 08:00      2.6      196      6.0      192     64.8     65.4     64.1       55     1015     0.00      508     13.1
    05/28/2017 08:15      1.9      207      3.9      158     65.0     65.6     64.2       53     1015     0.00      554     13.1
    05/28/2017 08:30      2.3      185      5.0      164     66.4     67.0     65.5       50     1015     0.00      597     13.1
    05/28/2017 08:45      2.2      182      6.3      183     66.9     67.6     66.4       49     1015     0.00      637     13.1
    05/28/2017 09:00      1.1       64      3.4       97     68.1     68.5     67.5       48     1015     0.00      678     13.1
    05/28/2017 09:15      1.5      325      3.9      345     68.9     70.2     67.9       46     1015     0.00      716     13.0
    05/28/2017 09:30      1.3      323      3.4      289     70.0     70.5     69.6       45     1015     0.00      750     13.0
    05/28/2017 09:45      1.8      162      5.1      159     71.4     72.1     70.2       42     1015     0.00      782     13.0
    05/28/2017 10:00      2.7      156      5.9      152     71.8     72.4     70.8       41     1015     0.00      811     13.0
    05/28/2017 10:15      2.7      229      5.3      215     72.6     73.2     72.1       40     1015     0.00      835     13.0
    05/28/2017 10:30      2.0      136      5.0      150     73.7     74.8     73.2       39     1015     0.00      858     13.0
    05/28/2017 10:45      2.4      178      7.9      194     74.9     76.3     73.3       37     1015     0.00      875     13.0
    05/28/2017 11:00      1.7      159      4.9      139     75.0     75.8     74.1       35     1015     0.00      891     13.0
    05/28/2017 11:15      1.2      165      3.1       91     76.2     77.1     75.6       35     1015     0.00      903     12.9
    05/28/2017 11:30      2.3      116      5.0      150     78.3     79.1     77.1       31     1015     0.00      910     12.9
    05/28/2017 11:45      3.4       91      7.8       89     78.8     79.5     78.3       29     1014     0.00      913     12.9
    05/28/2017 12:00      1.5       79      4.3      137     79.9     81.1     79.2       29     1014     0.00      919     12.9
    05/28/2017 12:15      2.4      147      6.6      210     80.5     81.1     79.8       29     1014     0.00      917     12.9
    05/28/2017 12:30      2.9       50      8.1       84     81.2     82.2     80.3       28     1014     0.00      913     12.9
    05/28/2017 12:45      3.4      184      7.1      162     81.8     82.7     80.4       30     1014     0.00      907     12.9
    05/28/2017 13:00      2.8      100      8.3      176     83.1     83.8     82.5       28     1014     0.00      896     12.9
    05/28/2017 13:15      3.2      101      6.9       68     82.7     83.6     82.2       29     1013     0.00      879     12.9
    05/28/2017 13:30      4.4      125     11.6      151     83.4     84.3     82.7       30     1013     0.00      857     12.9
    05/28/2017 13:45      4.0      125      9.5      155     83.7     84.6     82.9       30     1013     0.00      832     12.9
    05/28/2017 14:00      5.1      138     10.5       80     84.1     85.5     83.2       29     1013     0.00      810     12.9
    05/28/2017 14:15      4.5      135     11.1      109     85.0     85.5     84.4       29     1013     0.00      782     12.9
    05/28/2017 14:30      4.6      120      9.1       95     83.7     84.7     82.6       31     1013     0.00      743     12.9
    05/28/2017 14:45      4.8      132     10.7      148     83.6     84.9     82.4       31     1013     0.00      690     12.9
    05/28/2017 15:00      4.1      119      9.3      104     83.4     84.0     82.9       31     1013     0.00      670     12.9
    05/28/2017 15:15      4.5      122      9.1      115     83.1     83.9     82.4       32     1013     0.00      623     12.9
    05/28/2017 15:30      3.6      122      7.5      130     83.4     83.9     82.8       30     1012     0.00      580     12.9
    05/28/2017 15:45      3.5      116      8.4       99     83.1     83.7     82.7       31     1012     0.00      539     12.9
    05/28/2017 16:00      4.4      129      8.2      153     82.3     83.1     81.6       31     1012     0.00      491     12.9
    05/28/2017 16:15      4.4      118      8.6      107     82.5     83.3     82.0       31     1012     0.00      442     12.9
    05/28/2017 16:30      3.9      100      8.2       82     81.5     82.3     81.2       31     1012     0.00      397     12.9
    05/28/2017 16:45      4.0      111      7.9      155     81.0     81.6     80.3       32     1012     0.00      353     12.9
    05/28/2017 17:00      3.7      126      6.7      140     80.4     81.0     80.0       32     1012     0.00      308     12.9
    05/28/2017 17:15      3.6      126      7.8      120     80.4     80.9     80.1       33     1012     0.00      264     12.9
    05/28/2017 17:30      4.7       91      8.9       90     78.9     80.2     78.1       36     1012     0.00      173     12.9
    05/28/2017 17:45      3.9       96      8.2      111     77.7     78.3     76.9       35     1012     0.00       42     12.9
    05/28/2017 18:00      3.3       98      6.8       96     76.6     77.0     76.1       37     1012     0.00       35     13.0
    05/28/2017 18:15      3.5      107      6.4       86     75.8     76.5     75.2       40     1012     0.00       29     13.0
    05/28/2017 18:30      2.9       93      6.1       97     74.7     75.4     74.0       42     1012     0.00       22     13.0
    05/28/2017 18:45      3.3      100      7.3       91     73.1     74.3     72.1       46     1012     0.00       15     13.1
    05/28/2017 19:00      1.7      123      7.7       96     71.7     72.4     70.6       49     1013     0.00        6     13.1
    05/28/2017 19:15      3.3       67      6.6       94     70.1     71.0     69.2       51     1013     0.00        0     13.1
    05/28/2017 19:30      2.8       74      5.3       67     68.7     69.3     68.2       54     1013     0.00        0     13.1
    05/28/2017 19:45      3.1       74      5.5       71     68.1     68.4     67.8       55     1013     0.00        0     13.1
    05/28/2017 20:00      4.3       72      7.5       71     67.7     68.1     67.2       53     1013     0.00        0     13.1
    05/28/2017 20:15      3.3       74      7.3       83     67.0     67.4     66.7       54     1013     0.00        0     13.2
    05/28/2017 20:30      3.1       81      7.3       69     66.4     66.8     66.1       55     1013     0.00        0     13.2
    05/28/2017 20:45      2.3       81      5.0       75     65.9     66.2     65.5       55     1013     0.00        0     13.2
    05/28/2017 21:00      1.5       78      3.4       73     65.6     65.8     65.3       56     1013     0.00        0     13.2
    05/28/2017 21:15      0.9       84      2.3       44     65.2     65.5     65.0       56     1014     0.00        0     13.2
    05/28/2017 21:30      2.3       75      3.7       48     65.1     65.3     64.9       56     1014     0.00        0     13.2
    05/28/2017 21:45      1.6       93      2.9       96     64.8     65.0     64.5       57     1014     0.00        0     13.2
    05/28/2017 22:00      1.9       77      3.9       76     64.5     64.8     64.3       59     1014     0.00        0     13.2
    05/28/2017 22:15      2.2       64      3.9       64     64.1     64.5     63.6       60     1014     0.00        0     13.2
    05/28/2017 22:30      0.9       57      2.8       46     63.4     63.8     63.0       62     1013     0.00        0     13.2
    05/28/2017 22:45      0.9       94      3.1      115     62.7     63.2     62.4       63     1013     0.00        0     13.2
    05/28/2017 23:00      1.5       64      2.8       68     62.6     62.8     62.4       63     1013     0.00        0     13.2
    05/28/2017 23:15      1.5       67      3.0       82     62.4     62.6     62.2       64     1013     0.00        0     13.2
    05/28/2017 23:30      0.9       69      2.0       65     62.2     62.5     61.9       65     1013     0.00        0     13.2
    05/28/2017 23:45      1.0       65      2.6       80     61.9     62.2     61.6       66     1013     0.00        0     13.2
    05/29/2017 00:00      1.9       74      3.0       82     61.8     62.0     61.6       66     1013     0.00        0     13.3
    05/29/2017 00:15      1.7       85      3.3       80     61.6     61.9     61.4       67     1013     0.00        0     13.3
    05/29/2017 00:30      0.4      111      2.5      105     61.1     61.7     60.8       69     1013     0.00        0     13.3
    05/29/2017 00:45      1.7       67      3.3       57     60.9     61.1     60.7       70     1013     0.00        0     13.3
    05/29/2017 01:00      1.9       74      3.3       80     60.6     60.9     60.3       71     1012     0.00        0     13.3
    05/29/2017 01:15      1.4      131      3.3      142     60.2     60.6     59.7       72     1012     0.00        0     13.3
    05/29/2017 01:30      1.6      150      2.7      138     59.7     59.9     59.4       73     1012     0.00        0     13.3
    05/29/2017 01:45      0.4      143      2.7      145     59.4     59.7     59.2       74     1012     0.00        0     13.3
    05/29/2017 02:00      1.3       91      2.9       96     59.3     59.6     59.1       74     1012     0.00        0     13.3
    05/29/2017 02:15      0.6       75      2.3       75     59.4     59.7     59.1       75     1012     0.00        0     13.3
    05/29/2017 02:30      0.8      101      2.8       77     59.1     59.4     58.8       75     1012     0.00        0     13.3
    05/29/2017 02:45      1.2      151      2.2      164     58.6     59.0     58.3       77     1012     0.00        0     13.3
    05/29/2017 03:00      1.1      127      3.2       94     58.3     58.5     58.0       78     1012     0.00        0     13.3
    05/29/2017 03:15      2.0       48      4.0       47     58.5     58.7     58.2       78     1012     0.00        0     13.3
    05/29/2017 03:30      3.0       47      6.0       42     58.3     58.5     58.1       78     1012     0.00        0     13.3
    05/29/2017 03:45      1.6       81      4.3       50     58.1     58.4     57.9       79     1012     0.00        0     13.3
    05/29/2017 04:00      1.8       52      3.2       47     57.9     58.2     57.7       79     1012     0.00        0     13.3
    05/29/2017 04:15      1.7       84      3.7       53     57.7     58.0     57.5       80     1012     0.00        0     13.3
    05/29/2017 04:30      1.7       68      3.1       89     57.5     57.8     57.2       80     1012     0.00        0     13.3
    05/29/2017 04:45      1.7       74      3.3       59     57.2     57.5     57.0       81     1012     0.00        1     13.3
    05/29/2017 05:00      1.5      132      3.2       79     56.8     57.2     56.4       82     1012     0.00        5     13.3
    05/29/2017 05:15      1.4      141      3.2      133     56.4     56.7     56.0       83     1012     0.00        9     13.3
    05/29/2017 05:30      1.4      133      3.7      145     56.2     56.5     56.0       84     1012     0.00       17     13.3
    05/29/2017 05:45      1.3      111      3.2       82     56.3     56.4     56.0       84     1012     0.00       26     13.3
    05/29/2017 06:00      2.4       86      5.2       89     56.5     56.8     56.1       83     1012     0.00      108     13.3
    05/29/2017 06:15      3.2      102      7.0      104     56.7     57.1     56.3       84     1012     0.00      107     13.3
    05/29/2017 06:30      3.5       88      6.6       92     56.6     57.0     56.4       84     1012     0.00      121     13.3
    05/29/2017 06:45      1.9      104      4.7       62     57.0     57.4     56.7       83     1012     0.00      127     13.3
    05/29/2017 07:00      1.4      110      4.3       61     57.5     58.0     57.1       82     1012     0.00      156     13.3
    05/29/2017 07:15      2.0       34      5.0       84     58.3     58.8     57.8       80     1012     0.00      240     13.2
    05/29/2017 07:30      1.5      110      3.3      149     59.5     60.4     58.6       76     1012     0.00      297     13.2
    05/29/2017 07:45      1.7      109      3.8       89     61.5     62.2     60.3       71     1012     0.00      373     13.2
    05/29/2017 08:00      2.1      123      4.4      146     62.6     63.2     61.9       67     1012     0.00      459     13.2
    05/29/2017 08:15      2.3      154      5.8      162     63.6     64.2     62.9       68     1012     0.00      559     13.1
    05/29/2017 08:30      2.7      129      6.9      132     64.3     65.0     63.5       65     1012     0.00      598     13.1
    05/29/2017 08:45      2.0      111      4.9      173     65.1     66.4     64.2       61     1012     0.00      617     13.1
    05/29/2017 09:00      2.5      161      5.4      145     66.9     68.3     65.8       58     1012     0.00      618     13.1
    05/29/2017 09:15      2.8      173      5.5      156     67.0     67.5     66.6       60     1012     0.00      695     13.1
    05/29/2017 09:30      2.4      101      6.1      136     67.3     68.2     66.1       57     1012     0.00      737     13.1
    05/29/2017 09:45      2.5       91      6.7       96     68.9     70.0     67.6       54     1012     0.00      774     13.0
    05/29/2017 10:00      3.1      108      7.3      148     69.5     70.1     68.9       52     1012     0.00      811     13.0
    05/29/2017 10:15      2.9      101      6.3      159     70.8     71.3     69.7       51     1012     0.00      843     13.0
    05/29/2017 10:30      3.0      129      8.7       88     72.1     72.6     70.9       49     1012     0.00      869     13.0
    05/29/2017 10:45      3.0      110      7.1      171     72.7     73.9     71.8       46     1011     0.00      905     13.0
    05/29/2017 11:00      4.3      146      8.0      148     73.6     74.9     72.3       46     1011     0.00      890     13.0
    05/29/2017 11:15      3.9      131      7.9      162     75.2     76.1     74.3       43     1012     0.00      884     13.0
    05/29/2017 11:30      3.7      130      7.5      175     75.3     75.7     75.0       43     1011     0.00      699     13.0
    05/29/2017 11:45      4.0       95      7.4       78     75.9     76.6     75.1       42     1011     0.00      809     12.9
    05/29/2017 12:00      3.9       70      8.3       80     76.1     77.1     75.6       40     1011     0.00      715     12.9
    05/29/2017 12:15      4.3       76      8.0       84     76.6     77.3     75.9       41     1011     0.00      769     13.0
    05/29/2017 12:30      4.0      103      9.0       80     76.8     77.4     76.3       41     1011     0.00      609     12.9
    05/29/2017 12:45      3.5      133      9.7      135     77.9     78.5     77.1       41     1011     0.00      685     12.9
    05/29/2017 13:00      5.4      126     11.0      150     77.9     78.5     77.5       43     1011     0.00      853     12.9
    05/29/2017 13:15      4.7      125      9.7      128     78.0     78.6     77.6       41     1011     0.00      884     12.9
    05/29/2017 13:30      4.5      142     10.2      141     79.2     79.9     77.9       40     1010     0.00      866     12.9
    05/29/2017 13:45      4.2      100      9.4       79     79.2     80.3     78.2       39     1010     0.00      764     12.9
    05/29/2017 14:00      4.8      139      8.9      139     79.2     80.2     78.0       40     1010     0.00      837     12.9
    05/29/2017 14:15      3.4      123      9.5       97     79.7     80.3     79.1       36     1010     0.00      518     12.9
    05/29/2017 14:30      4.8      139     10.5      154     81.0     81.7     80.1       36     1010     0.00      672     12.9
    05/29/2017 14:45      5.5      115     11.1       65     80.3     81.3     79.3       38     1010     0.00      734     12.9
    05/29/2017 15:00      4.3      128     10.2      158     79.9     80.7     79.2       37     1010     0.00      702     12.9
    05/29/2017 15:15      5.1      109     12.0       89     79.2     80.2     78.5       39     1010     0.00      601     12.9
    05/29/2017 15:30      4.7      106     11.6       95     78.2     78.7     77.3       41     1009     0.00      590     12.9
    05/29/2017 15:45      3.9      122     10.5       93     77.7     78.2     77.2       42     1009     0.00      547     12.9
    05/29/2017 16:00      4.4      116     10.3       81     77.1     77.7     76.3       43     1009     0.00      506     12.9
    05/29/2017 16:15      3.7      117      8.8       83     76.5     77.0     75.6       44     1010     0.00      445     12.9
    05/29/2017 16:30      4.0      120     10.8       89     75.5     76.0     74.9       45     1010     0.00      412     12.9
    05/29/2017 16:45      4.7      106     11.4       88     74.5     75.2     74.1       47     1010     0.00      380     12.9
    05/29/2017 17:00      4.4      125     10.0       78     74.0     74.6     72.9       48     1010     0.00      321     12.9
    05/29/2017 17:15      4.3      116      8.8      126     73.1     73.6     72.4       49     1010     0.00      264     13.0
    05/29/2017 17:30      4.9      112      9.2       98     71.8     72.6     70.9       51     1010     0.00      170     13.0
    05/29/2017 17:45      3.7      118      8.9      134     70.6     71.1     70.3       53     1010     0.00       43     13.0
    05/29/2017 18:00      3.9      117      9.2       83     69.8     70.6     69.4       54     1010     0.00       37     13.0
    05/29/2017 18:15      3.7      103      8.7       82     69.1     69.6     68.5       56     1010     0.00       30     13.1
    05/29/2017 18:30      2.6      117      6.3      161     68.5     68.8     68.1       56     1010     0.00       23     13.1
    05/29/2017 18:45      2.1      134      6.0      161     67.9     68.5     67.4       58     1010     0.00       14     13.1
    05/29/2017 19:00      2.5      106      5.8       97     67.1     67.6     66.6       59     1010     0.00        6     13.1
    05/29/2017 19:15      1.8      122      4.3      100     66.6     66.9     66.2       60     1010     0.00        2     13.1
    05/29/2017 19:30      2.0      121      4.6      127     66.2     66.6     65.8       61     1011     0.00        0     13.2
    05/29/2017 19:45      2.5      103      5.6       92     65.7     66.0     65.4       62     1011     0.00        0     13.2
    05/29/2017 20:00      2.2       97      5.1       59     65.4     65.7     65.0       63     1011     0.00        0     13.2
    05/29/2017 20:15      2.9       82      5.8       70     65.0     65.3     64.6       64     1011     0.00        0     13.2
    05/29/2017 20:30      3.2       75      5.5       78     64.4     64.8     64.0       65     1011     0.00        0     13.2
    05/29/2017 20:45      2.8       84      5.4       90     63.9     64.3     63.6       66     1011     0.00        0     13.2
    05/29/2017 21:00      1.7      106      4.3       92     63.6     63.9     63.2       68     1011     0.00        0     13.2
    05/29/2017 21:15      1.7       95      3.9       85     63.3     63.5     63.0       68     1012     0.00        0     13.2
    05/29/2017 21:30      2.1       90      4.0       63     63.1     63.3     62.9       68     1012     0.00        0     13.2
    05/29/2017 21:45      2.7       79      5.3       86     62.8     63.2     62.3       70     1012     0.00        0     13.2
    05/29/2017 22:00      2.3       87      4.1       73     62.4     62.6     62.1       70     1012     0.00        0     13.2
    05/29/2017 22:15      2.4       96      5.2      133     62.1     62.3     61.8       71     1012     0.00        0     13.2
    05/29/2017 22:30      2.1       96      4.7      118     61.7     62.0     61.4       72     1012     0.00        0     13.2
    05/29/2017 22:45      1.9      106      5.0      103     61.1     61.6     60.6       74     1011     0.00        0     13.2
    05/29/2017 23:00      1.5      119      3.3       98     60.7     60.9     60.4       75     1011     0.00        0     13.2
    05/29/2017 23:15      1.6      109      3.5       90     60.3     60.6     60.0       76     1011     0.00        0     13.2
    05/29/2017 23:30      1.7      104      4.0       91     60.0     60.3     59.7       77     1011     0.00        0     13.3
    05/29/2017 23:45      2.5       89      4.8       85     59.7     60.0     59.4       77     1011     0.00        0     13.3
    05/30/2017 00:00      1.9       84      4.1      102     59.4     59.7     59.1       78     1011     0.00        0     13.3
    05/30/2017 00:15      2.5       92      5.0      106     59.1     59.4     58.8       79     1011     0.00        0     13.3
    05/30/2017 00:30      2.8       95      5.7       64     58.7     59.1     58.5       80     1011     0.00        0     13.3
    05/30/2017 00:45      2.4       89      6.0       68     58.3     58.6     58.1       81     1011     0.00        0     13.3
    05/30/2017 01:00      2.4      104      5.6       79     58.1     58.3     57.9       82     1011     0.00        0     13.3
    05/30/2017 01:15      2.1      110      5.4       80     57.9     58.1     57.7       83     1011     0.00        0     13.3